Time;durP1;ratioP1;P1;durP2;ratioP2;P2;SDS_P1;SDS_P2;PMS_P1;PMS_P2;Temp;Humidity;BMP_temperature;BMP_pressure;BME280_temperature;BME280_humidity;BME280_pressure;Samples;Min_cycle;Max_cycle;Signal;HPM_P1;HPM_P2
2021/05/15 00:00:30;;;;;;;9.48;3.95;;;;;;;8.67;77.00;99786.00;1725153;83;21566;-69
2021/05/15 00:02:59;;;;;;;4.00;3.25;;;;;;;8.63;77.05;99786.50;1725329;83;21654;-69
2021/05/15 00:05:26;;;;;;;6.95;3.45;;;;;;;8.63;77.09;99785.17;1725006;83;32538;-69
2021/05/15 00:07:52;;;;;;;9.53;4.45;;;;;;;8.61;77.13;99791.17;1727085;82;21050;-69
2021/05/15 00:10:19;;;;;;;6.92;3.83;;;;;;;8.56;77.21;99795.67;1733671;82;21026;-69
2021/05/15 00:12:45;;;;;;;5.83;4.20;;;;;;;8.53;77.30;99787.55;1733593;82;21058;-69
2021/05/15 00:15:11;;;;;;;6.85;3.30;;;;;;;8.52;77.34;99794.35;1733651;82;20856;-69
2021/05/15 00:17:39;;;;;;;5.20;3.10;;;;;;;8.51;77.36;99795.37;1733722;82;21033;-69
2021/05/15 00:20:12;;;;;;;11.95;3.72;;;;;;;8.49;77.42;99798.19;1733954;82;21098;-69
2021/05/15 00:22:40;;;;;;;6.95;3.50;;;;;;;8.47;77.47;99796.22;1733696;82;21018;-69
2021/05/15 00:25:07;;;;;;;5.85;3.08;;;;;;;8.46;77.54;99797.70;1733213;81;21636;-69
2021/05/15 00:27:34;;;;;;;7.92;3.42;;;;;;;8.42;77.59;99798.55;1733697;82;21003;-69
2021/05/15 00:30:00;;;;;;;9.40;3.25;;;;;;;8.38;77.61;99795.89;1733421;82;21018;-69
2021/05/15 00:32:26;;;;;;;5.42;3.40;;;;;;;8.36;77.63;99803.22;1733735;82;20868;-69
2021/05/15 00:34:52;;;;;;;8.98;3.60;;;;;;;8.32;77.69;99801.90;1733668;82;21539;-69
2021/05/15 00:37:18;;;;;;;6.90;3.47;;;;;;;8.32;77.75;99799.23;1733728;82;21217;-69
2021/05/15 00:39:44;;;;;;;5.60;3.00;;;;;;;8.34;77.78;99805.20;1733519;82;20899;-69
2021/05/15 00:42:10;;;;;;;6.87;3.05;;;;;;;8.35;77.81;99811.34;1733742;82;21122;-69
2021/05/15 00:44:43;;;;;;;5.10;3.72;;;;;;;8.32;77.82;99812.52;1733584;82;21002;-69
2021/05/15 00:47:15;;;;;;;3.35;2.50;;;;;;;8.31;77.87;99817.99;1733735;82;20998;-69
2021/05/15 00:49:42;;;;;;;5.10;2.60;;;;;;;8.30;77.91;99806.53;1733696;82;21170;-69
2021/05/15 00:52:09;;;;;;;5.22;2.60;;;;;;;8.30;77.93;99806.53;1733317;82;21031;-69
2021/05/15 00:54:37;;;;;;;4.25;2.60;;;;;;;8.31;77.99;99810.86;1733874;82;21054;-69
2021/05/15 00:57:03;;;;;;;7.95;3.67;;;;;;;8.32;78.01;99811.20;1733339;82;21073;-69
2021/05/15 00:59:29;;;;;;;7.22;3.58;;;;;;;8.32;78.02;99807.21;1733634;82;21636;-69
2021/05/15 01:01:55;;;;;;;8.65;3.35;;;;;;;8.30;78.05;99803.87;1733334;82;21082;-69
2021/05/15 01:04:21;;;;;;;5.53;3.12;;;;;;;8.28;78.08;99804.56;1733451;82;21586;-69
2021/05/15 01:06:48;;;;;;;8.08;3.15;;;;;;;8.25;78.12;99810.19;1733792;82;21022;-69
2021/05/15 01:09:14;;;;;;;7.40;3.30;;;;;;;8.22;78.15;99807.88;1728331;82;20884;-69
2021/05/15 01:11:40;;;;;;;6.65;3.00;;;;;;;8.19;78.19;99810.87;1725647;83;20894;-69
2021/05/15 01:14:06;;;;;;;6.80;2.80;;;;;;;8.18;78.24;99815.84;1725412;83;21548;-69
2021/05/15 01:16:32;;;;;;;6.08;2.67;;;;;;;8.17;78.25;99809.36;1725406;83;20908;-69
2021/05/15 01:18:59;;;;;;;6.33;3.20;;;;;;;8.15;78.27;99814.86;1725202;83;21561;-69
2021/05/15 01:21:25;;;;;;;5.35;2.98;;;;;;;8.11;78.29;99809.55;1725513;83;21058;-69
2021/05/15 01:23:51;;;;;;;8.93;3.45;;;;;;;8.11;78.32;99812.20;1725610;83;20979;-69
2021/05/15 01:26:22;;;;;;;5.72;3.17;;;;;;;8.09;78.35;99822.17;1725553;83;21554;-69
2021/05/15 01:28:52;;;;;;;6.62;3.58;;;;;;;8.06;78.37;99824.34;1725403;83;21015;-69
2021/05/15 01:31:18;;;;;;;6.78;3.12;;;;;;;8.03;78.40;99821.50;1725443;83;21022;-69
2021/05/15 01:33:44;;;;;;;6.40;2.72;;;;;;;8.03;78.44;99822.83;1725730;83;21067;-69
2021/05/15 01:36:10;;;;;;;6.37;3.25;;;;;;;8.02;78.44;99823.32;1725388;83;20887;-69
2021/05/15 01:38:36;;;;;;;5.90;3.15;;;;;;;7.99;78.45;99828.97;1725771;83;21538;-69
2021/05/15 01:41:04;;;;;;;4.62;2.72;;;;;;;7.96;78.49;99824.48;1725483;83;21043;-69
2021/05/15 01:43:30;;;;;;;5.75;2.83;;;;;;;7.91;78.51;99817.05;1724704;83;21031;-69
2021/05/15 01:45:56;;;;;;;4.95;2.40;;;;;;;7.87;78.51;99822.84;1725502;83;20951;-69
2021/05/15 01:48:22;;;;;;;6.53;2.90;;;;;;;7.83;78.57;99814.88;1725387;83;21089;-69
2021/05/15 01:51:02;;;;;;;4.03;2.42;;;;;;;7.82;78.60;99815.88;1725589;83;21067;-69
2021/05/15 01:53:30;;;;;;;7.75;3.75;;;;;;;7.82;78.61;99825.16;1725708;83;24679;-69
2021/05/15 01:55:57;;;;;;;8.10;4.22;;;;;;;7.78;78.60;99825.16;1725217;83;21566;-69
2021/05/15 01:58:23;;;;;;;7.10;4.35;;;;;;;7.76;78.63;99825.83;1725375;83;21050;-69
2021/05/15 02:00:51;;;;;;;8.15;3.55;;;;;;;7.75;78.64;99820.19;1725472;83;21558;-69
2021/05/15 02:03:17;;;;;;;4.28;2.52;;;;;;;7.73;78.66;99812.90;1725479;83;21088;-69
2021/05/15 02:05:43;;;;;;;4.45;2.72;;;;;;;7.72;78.66;99823.17;1725280;83;21062;-69
2021/05/15 02:08:10;;;;;;;10.13;2.72;;;;;;;7.69;78.70;99819.53;1725175;82;20923;-69
2021/05/15 02:10:37;;;;;;;5.87;3.10;;;;;;;7.68;78.73;99815.20;1718292;83;21122;-69
2021/05/15 02:13:03;;;;;;;5.40;2.70;;;;;;;7.66;78.74;99811.41;1718651;83;21106;-69
2021/05/15 02:15:29;;;;;;;3.60;2.50;;;;;;;7.65;78.76;99816.38;1718488;83;21063;-69
2021/05/15 02:17:57;;;;;;;5.17;2.08;;;;;;;7.65;78.76;99817.70;1718641;83;21458;-69
2021/05/15 02:20:25;;;;;;;2.83;1.95;;;;;;;7.65;78.78;99815.55;1718292;83;21074;-69
2021/05/15 02:22:51;;;;;;;4.00;2.20;;;;;;;7.63;78.79;99812.23;1717449;83;21074;-69
2021/05/15 02:25:18;;;;;;;4.78;2.35;;;;;;;7.63;78.81;99814.89;1718695;83;21569;-69
2021/05/15 02:27:44;;;;;;;5.08;2.52;;;;;;;7.60;78.82;99815.23;1718292;83;21161;-69
2021/05/15 02:30:11;;;;;;;5.50;2.50;;;;;;;7.58;78.85;99814.55;1718482;83;20904;-69
2021/05/15 02:32:37;;;;;;;4.72;2.42;;;;;;;7.59;78.86;99810.91;1718527;83;21539;-69
2021/05/15 02:35:05;;;;;;;3.40;2.42;;;;;;;7.58;78.88;99810.56;1718101;83;20954;-69
2021/05/15 02:37:31;;;;;;;4.03;2.72;;;;;;;7.58;78.88;99811.89;1718509;83;21562;-69
2021/05/15 02:39:57;;;;;;;4.15;2.65;;;;;;;7.58;78.91;99814.55;1718277;83;21121;-69
2021/05/15 02:42:23;;;;;;;4.67;2.60;;;;;;;7.57;78.92;99810.22;1718531;83;21535;-69
2021/05/15 02:44:51;;;;;;;3.70;2.40;;;;;;;7.56;78.95;99813.89;1718395;83;21010;-69
2021/05/15 02:47:18;;;;;;;4.58;2.25;;;;;;;7.54;78.95;99812.23;1718569;83;21086;-69
2021/05/15 02:49:44;;;;;;;3.58;2.33;;;;;;;7.54;78.98;99817.53;1718304;83;21077;-69
2021/05/15 02:52:10;;;;;;;3.58;2.15;;;;;;;7.50;78.99;99816.20;1718252;83;21126;-69
2021/05/15 02:54:36;;;;;;;3.00;2.08;;;;;;;7.51;79.03;99816.54;1718489;83;21529;-69
2021/05/15 02:57:02;;;;;;;2.98;2.45;;;;;;;7.49;79.04;99817.18;1718435;83;20907;-69
2021/05/15 02:59:28;;;;;;;4.35;2.60;;;;;;;7.46;79.06;99821.98;1718416;83;20987;-69
2021/05/15 03:01:54;;;;;;;5.10;3.27;;;;;;;7.44;79.08;99818.19;1718307;83;20923;-69
2021/05/15 03:04:20;;;;;;;8.00;4.37;;;;;;;7.43;79.09;99820.50;1718725;83;21139;-69
2021/05/15 03:06:46;;;;;;;7.87;4.85;;;;;;;7.44;79.10;99822.17;1718039;83;20919;-69
2021/05/15 03:09:11;;;;;;;9.63;5.08;;;;;;;7.45;79.13;99830.47;1718475;82;20951;-69
2021/05/15 03:11:37;;;;;;;8.85;4.75;;;;;;;7.45;79.13;99825.66;1718557;83;20982;-69
2021/05/15 03:14:03;;;;;;;8.08;4.42;;;;;;;7.47;79.17;99823.66;1718060;83;20999;-69
2021/05/15 03:16:31;;;;;;;8.78;4.70;;;;;;;7.45;79.17;99830.47;1718206;83;21597;-69
2021/05/15 03:18:57;;;;;;;12.53;5.37;;;;;;;7.46;79.21;99829.95;1718409;83;21594;-69
2021/05/15 03:21:23;;;;;;;10.28;6.28;;;;;;;7.49;79.24;99836.28;1718470;83;21634;-69
2021/05/15 03:23:49;;;;;;;8.75;6.00;;;;;;;7.53;79.25;99842.39;1718403;83;21105;-69
2021/05/15 03:26:15;;;;;;;10.82;6.45;;;;;;;7.60;79.27;99837.78;1718569;83;21081;-69
2021/05/15 03:28:41;;;;;;;10.45;6.58;;;;;;;7.70;79.33;99834.47;1718214;83;21082;-69
2021/05/15 03:31:07;;;;;;;15.72;6.33;;;;;;;7.80;79.35;99837.78;1718203;83;21613;-69
2021/05/15 03:33:33;;;;;;;9.08;4.45;;;;;;;7.89;79.33;99837.61;1718356;82;21026;-69
2021/05/15 03:35:59;;;;;;;7.15;4.12;;;;;;;7.95;79.31;99839.59;1718061;82;20903;-69
2021/05/15 03:38:25;;;;;;;10.45;4.70;;;;;;;8.00;79.30;99837.77;1718450;83;20998;-69
2021/05/15 03:40:51;;;;;;;7.85;4.15;;;;;;;8.01;79.28;99836.78;1718481;83;21071;-69
2021/05/15 03:43:17;;;;;;;5.12;3.92;;;;;;;8.09;79.30;99839.93;1718541;83;21069;-69
2021/05/15 03:45:43;;;;;;;7.12;3.80;;;;;;;8.16;79.32;99835.11;1718114;83;20994;-69
2021/05/15 03:48:09;;;;;;;10.15;4.55;;;;;;;8.26;79.35;99833.59;1718579;83;20974;-69
2021/05/15 03:50:35;;;;;;;7.30;4.50;;;;;;;8.36;79.37;99833.77;1718449;83;21590;-69
2021/05/15 03:53:01;;;;;;;6.03;4.55;;;;;;;8.61;79.46;99833.70;1718184;83;21111;-69
2021/05/15 03:55:27;;;;;;;9.10;4.53;;;;;;;9.21;79.62;99835.27;1718364;83;21577;-69
2021/05/15 03:57:53;;;;;;;6.28;3.67;;;;;;;10.22;79.69;99830.02;1718201;83;21041;-70
2021/05/15 04:00:20;;;;;;;6.70;3.58;;;;;;;11.25;79.60;99828.13;1718426;83;20933;-70
2021/05/15 04:02:48;;;;;;;10.03;4.92;;;;;;;12.23;79.30;99824.25;1718165;83;21088;-70
2021/05/15 04:05:15;;;;;;;5.85;4.00;;;;;;;12.98;78.80;99823.47;1718428;83;21156;-70
2021/05/15 04:07:41;;;;;;;11.85;4.05;;;;;;;13.85;78.21;99821.66;1718185;83;21106;-70
2021/05/15 04:10:08;;;;;;;5.12;3.27;;;;;;;14.61;77.40;99817.17;1722445;82;20852;-70
2021/05/15 04:12:35;;;;;;;6.58;3.80;;;;;;;15.38;76.85;99818.42;1725385;83;21062;-70
2021/05/15 04:15:06;;;;;;;5.65;3.65;;;;;;;15.95;76.13;99820.15;1725396;83;21003;-70
2021/05/15 04:17:30;;;;;;;5.65;2.98;;;;;;;16.33;75.63;99820.85;1724987;83;21042;-70
2021/05/15 04:19:57;;;;;;;7.72;2.90;;;;;;;16.81;74.88;99820.20;1725046;83;21043;-70
2021/05/15 04:22:23;;;;;;;5.78;3.05;;;;;;;17.20;74.03;99823.78;1725385;83;21027;-70
2021/05/15 04:24:49;;;;;;;9.05;4.58;;;;;;;17.55;73.15;99824.45;1724933;83;21559;-70
2021/05/15 04:27:15;;;;;;;8.23;3.70;;;;;;;17.83;72.13;99827.38;1725412;83;21002;-70
2021/05/15 04:29:42;;;;;;;5.72;3.02;;;;;;;18.17;71.33;99826.61;1725396;83;21803;-70
2021/05/15 04:32:08;;;;;;;6.92;3.25;;;;;;;18.09;70.38;99830.16;1725195;83;21067;-70
2021/05/15 04:34:35;;;;;;;5.80;3.17;;;;;;;17.83;69.62;99830.08;1725529;83;21480;-70
2021/05/15 04:37:01;;;;;;;6.08;3.22;;;;;;;17.76;69.19;99837.45;1725323;83;21042;-70
2021/05/15 04:39:28;;;;;;;4.03;1.57;;;;;;;17.79;68.04;99839.67;1725576;83;21680;-70
2021/05/15 04:41:56;;;;;;;5.47;2.25;;;;;;;17.65;67.13;99838.23;1725453;83;21681;-70
2021/05/15 04:44:22;;;;;;;3.95;1.90;;;;;;;17.32;66.85;99842.16;1725547;83;21007;-70
2021/05/15 04:46:49;;;;;;;4.70;2.33;;;;;;;16.85;66.62;99836.22;1725395;83;21059;-70
2021/05/15 04:49:15;;;;;;;2.80;2.12;;;;;;;16.50;66.67;99848.84;1725363;83;21650;-70
2021/05/15 04:51:41;;;;;;;4.05;2.40;;;;;;;16.22;66.89;99850.38;1725365;83;21011;-70
2021/05/15 04:54:08;;;;;;;4.72;2.17;;;;;;;16.03;66.92;99846.78;1725747;83;21236;-70
2021/05/15 04:56:34;;;;;;;5.12;2.35;;;;;;;15.62;66.71;99846.45;1725563;83;21074;-70
2021/05/15 04:59:00;;;;;;;3.98;2.40;;;;;;;15.47;66.48;99844.02;1725297;83;20971;-70
2021/05/15 05:01:26;;;;;;;6.53;1.87;;;;;;;15.32;66.50;99840.27;1725521;83;21031;-70
2021/05/15 05:03:52;;;;;;;2.83;2.00;;;;;;;15.34;66.41;99842.20;1725467;83;21684;-70
2021/05/15 05:06:19;;;;;;;3.52;1.85;;;;;;;15.42;66.26;99843.83;1725393;83;21068;-70
2021/05/15 05:08:45;;;;;;;2.30;1.72;;;;;;;15.50;65.99;99847.65;1725396;83;21019;-70
2021/05/15 05:11:11;;;;;;;3.62;2.02;;;;;;;15.67;65.79;99851.98;1732636;82;21522;-70
2021/05/15 05:13:37;;;;;;;3.27;1.72;;;;;;;15.76;65.64;99850.16;1733828;82;21491;-70
2021/05/15 05:16:04;;;;;;;4.70;1.67;;;;;;;15.83;65.42;99846.11;1733890;82;20855;-70
2021/05/15 05:18:30;;;;;;;2.60;1.80;;;;;;;16.06;65.13;99849.03;1734099;82;21603;-70
2021/05/15 05:20:57;;;;;;;2.55;1.30;;;;;;;16.20;64.88;99844.36;1733679;82;21625;-70
2021/05/15 05:23:24;;;;;;;2.17;1.15;;;;;;;16.02;64.58;99845.12;1733942;82;21018;-70
2021/05/15 05:25:50;;;;;;;1.80;1.27;;;;;;;16.10;64.47;99844.87;1733851;82;21027;-70
2021/05/15 05:28:21;;;;;;;1.67;1.20;;;;;;;16.09;64.40;99841.87;1733508;82;20990;-70
2021/05/15 05:30:44;;;;;;;2.98;1.27;;;;;;;16.26;64.12;99841.62;1733308;82;21075;-70
2021/05/15 05:33:10;;;;;;;2.05;1.00;;;;;;;16.47;63.88;99847.95;1733921;82;20899;-70
2021/05/15 05:35:36;;;;;;;1.27;0.90;;;;;;;16.74;63.57;99846.38;1733857;82;20903;-70
2021/05/15 05:38:02;;;;;;;2.83;1.70;;;;;;;16.90;63.26;99846.61;1733826;82;21034;-71
2021/05/15 05:40:28;;;;;;;2.45;1.15;;;;;;;16.92;63.00;99851.78;1733842;82;21070;-70
2021/05/15 05:42:54;;;;;;;2.58;1.05;;;;;;;16.81;62.59;99847.13;1733722;82;21797;-70
2021/05/15 05:45:20;;;;;;;2.70;1.02;;;;;;;17.05;62.48;99850.27;1733574;82;20907;-70
2021/05/15 05:47:46;;;;;;;2.80;1.52;;;;;;;16.88;62.16;99855.97;1733538;82;21581;-70
2021/05/15 05:50:12;;;;;;;2.92;1.12;;;;;;;16.98;62.08;99850.88;1733696;82;20852;-70
2021/05/15 05:52:38;;;;;;;1.67;1.12;;;;;;;17.14;61.76;99849.43;1733828;82;21030;-70
2021/05/15 05:55:06;;;;;;;1.57;0.93;;;;;;;17.27;61.46;99847.42;1733859;82;21565;-71
2021/05/15 05:57:32;;;;;;;16.80;2.22;;;;;;;17.44;61.16;99845.74;1728629;82;21001;-71
2021/05/15 05:59:58;;;;;;;1.22;0.90;;;;;;;17.40;60.85;99852.63;1713936;82;21585;-71
2021/05/15 06:02:24;;;;;;;2.27;1.32;;;;;;;17.37;60.53;99854.97;1724274;81;21401;-71
2021/05/15 06:04:50;;;;;;;3.40;2.80;;;;;;;17.32;60.39;99852.11;1728832;82;21045;-71
2021/05/15 06:07:16;;;;;;;3.70;1.37;;;;;;;17.31;60.19;99850.48;1711553;82;21132;-71
2021/05/15 06:09:42;;;;;;;4.40;1.55;;;;;;;17.45;59.91;99846.02;1718463;82;21534;-71
2021/05/15 06:12:11;;;;;;;2.75;1.60;;;;;;;17.73;59.64;99847.34;1716262;82;21097;-71
2021/05/15 06:14:39;;;;;;;2.72;1.90;;;;;;;17.89;59.33;99846.16;1709679;82;21026;-71
2021/05/15 06:17:05;;;;;;;7.65;4.25;;;;;;;18.00;59.00;99854.51;1733052;82;21542;-71
2021/05/15 06:19:31;;;;;;;3.02;2.08;;;;;;;18.12;58.79;99856.16;1733723;82;21136;-71
2021/05/15 06:21:58;;;;;;;2.95;2.08;;;;;;;18.07;58.64;99857.41;1733903;82;21526;-71
2021/05/15 06:24:25;;;;;;;7.75;2.87;;;;;;;17.99;58.47;99859.08;1733251;82;21063;-71
2021/05/15 06:26:51;;;;;;;3.77;2.52;;;;;;;18.01;58.19;99861.56;1721942;82;21129;-71
2021/05/15 06:29:17;;;;;;;3.75;2.40;;;;;;;18.04;58.00;99859.22;1749677;81;21765;-71
2021/05/15 06:31:43;;;;;;;4.05;2.30;;;;;;;18.02;57.80;99859.96;1725608;81;21185;-71
2021/05/15 06:34:09;;;;;;;6.05;2.98;;;;;;;17.89;57.70;99860.17;1704575;84;21543;-71
2021/05/15 06:36:35;;;;;;;5.53;3.27;;;;;;;17.81;57.50;99863.19;1704627;84;21034;-71
2021/05/15 06:39:01;;;;;;;8.70;5.75;;;;;;;17.83;57.44;99854.36;1727361;82;20998;-71
2021/05/15 06:41:27;;;;;;;6.00;4.10;;;;;;;17.94;57.46;99857.62;1730253;81;21511;-71
2021/05/15 06:43:53;;;;;;;5.53;4.15;;;;;;;17.97;57.41;99857.15;1729846;82;21132;-71
2021/05/15 06:46:19;;;;;;;6.78;4.90;;;;;;;18.01;57.39;99855.64;1729555;82;21619;-71
2021/05/15 06:48:45;;;;;;;6.97;4.70;;;;;;;18.04;57.04;99852.47;1703593;84;20906;-71
2021/05/15 06:51:11;;;;;;;6.85;5.03;;;;;;;18.20;57.12;99855.83;1703390;84;20984;-71
2021/05/15 06:53:37;;;;;;;7.35;5.58;;;;;;;18.30;57.12;99862.00;1713251;82;20937;-71
2021/05/15 06:56:03;;;;;;;9.85;5.72;;;;;;;18.24;57.09;99848.92;1713076;82;21662;-71
2021/05/15 06:58:29;;;;;;;8.05;5.30;;;;;;;18.28;57.12;99850.10;1720007;82;21121;-71
2021/05/15 07:00:55;;;;;;;6.45;4.97;;;;;;;18.43;56.89;99847.77;1705074;82;21691;-71
2021/05/15 07:03:21;;;;;;;7.12;5.03;;;;;;;18.60;56.82;99847.92;1713077;82;21420;-71
2021/05/15 07:05:47;;;;;;;7.85;3.95;;;;;;;18.58;56.71;99842.47;1722037;82;21096;-71
2021/05/15 07:08:13;;;;;;;4.70;3.70;;;;;;;18.71;56.75;99843.56;1704721;82;21232;-71
2021/05/15 07:10:39;;;;;;;5.78;3.83;;;;;;;18.91;56.69;99835.89;1711547;82;21040;-71
2021/05/15 07:13:06;;;;;;;10.13;6.53;;;;;;;19.10;56.49;99840.09;1711522;82;21079;-71
2021/05/15 07:15:32;;;;;;;4.53;3.00;;;;;;;19.34;56.33;99843.55;1714106;82;20906;-71
2021/05/15 07:18:00;;;;;;;6.15;3.62;;;;;;;19.43;56.23;99833.48;1712239;82;21668;-71
2021/05/15 07:20:26;;;;;;;32.80;6.43;;;;;;;19.39;56.07;99839.05;1714303;82;21108;-72
2021/05/15 07:22:52;;;;;;;6.50;3.47;;;;;;;19.42;55.75;99834.53;1722637;82;20946;-71
2021/05/15 07:25:18;;;;;;;7.70;4.50;;;;;;;19.55;55.57;99839.38;1707315;82;20966;-71
2021/05/15 07:27:45;;;;;;;5.50;3.75;;;;;;;19.60;55.36;99836.78;1705644;82;20882;-71
2021/05/15 07:30:13;;;;;;;6.20;3.62;;;;;;;19.62;55.08;99842.77;1713333;82;21640;-71
2021/05/15 07:32:39;;;;;;;6.85;3.72;;;;;;;19.60;55.03;99842.20;1716957;82;21988;-71
2021/05/15 07:35:07;;;;;;;7.53;4.30;;;;;;;19.59;54.85;99840.55;1714362;82;20910;-71
2021/05/15 07:37:33;;;;;;;8.88;3.95;;;;;;;19.59;54.69;99832.42;1734280;82;21657;-71
2021/05/15 07:39:59;;;;;;;6.70;4.67;;;;;;;19.66;54.42;99835.80;1724618;82;20975;-71
2021/05/15 07:42:25;;;;;;;5.83;4.25;;;;;;;19.64;54.16;99837.91;1719964;82;20977;-71
2021/05/15 07:44:51;;;;;;;5.17;4.33;;;;;;;19.59;54.06;99840.02;1732925;82;21051;-71
2021/05/15 07:47:17;;;;;;;7.55;4.50;;;;;;;19.64;53.88;99840.63;1711397;82;20949;-71
2021/05/15 07:49:43;;;;;;;5.70;3.92;;;;;;;19.67;53.68;99841.48;1703649;84;21006;-71
2021/05/15 07:52:09;;;;;;;4.65;3.70;;;;;;;19.70;53.64;99831.56;1707917;82;21629;-71
2021/05/15 07:54:36;;;;;;;5.75;4.42;;;;;;;19.91;53.54;99819.47;1726252;81;21131;-71
2021/05/15 07:57:02;;;;;;;9.85;4.17;;;;;;;20.09;53.33;99825.18;1761812;81;21123;-71
2021/05/15 07:59:28;;;;;;;7.30;4.60;;;;;;;20.28;53.13;99828.50;1731122;81;21056;-71
2021/05/15 08:01:54;;;;;;;6.08;4.42;;;;;;;20.08;52.81;99830.33;1722982;82;20965;-71
2021/05/15 08:04:20;;;;;;;7.42;4.42;;;;;;;19.99;52.57;99833.13;1703724;84;20976;-71
2021/05/15 08:06:48;;;;;;;9.68;6.10;;;;;;;20.04;52.33;99831.88;1703618;84;20921;-71
2021/05/15 08:09:14;;;;;;;6.85;5.20;;;;;;;20.15;52.12;99826.92;1705989;82;21723;-71
2021/05/15 08:11:40;;;;;;;6.40;4.55;;;;;;;20.23;51.69;99834.62;1713056;81;21070;-71
2021/05/15 08:14:06;;;;;;;5.75;4.60;;;;;;;20.11;51.40;99827.66;1706318;84;21084;-71
2021/05/15 08:16:33;;;;;;;6.10;4.15;;;;;;;19.96;51.33;99830.92;1714096;83;22546;-71
2021/05/15 08:19:00;;;;;;;4.95;4.42;;;;;;;20.02;51.03;99821.02;1718065;83;21724;-71
2021/05/15 08:21:26;;;;;;;6.08;3.80;;;;;;;20.03;50.72;99821.28;1716992;83;21102;-71
2021/05/15 08:23:53;;;;;;;5.58;4.35;;;;;;;20.20;50.64;99813.45;1681743;84;21497;-71
2021/05/15 08:26:19;;;;;;;6.90;4.90;;;;;;;20.38;50.48;99815.94;1701731;84;21057;-71
2021/05/15 08:28:48;;;;;;;7.67;5.47;;;;;;;20.31;50.16;99811.22;1716028;83;21621;-71
2021/05/15 08:31:13;;;;;;;7.53;5.20;;;;;;;20.29;50.17;99805.25;1712999;83;21042;-71
2021/05/15 08:33:39;;;;;;;13.43;5.22;;;;;;;20.21;50.02;99809.69;1714955;83;21340;-71
2021/05/15 08:36:06;;;;;;;8.35;4.90;;;;;;;20.30;50.06;99810.92;1675208;84;21658;-71
2021/05/15 08:38:32;;;;;;;6.62;5.22;;;;;;;20.48;49.83;99813.91;1701944;83;21112;-71
2021/05/15 08:40:58;;;;;;;6.45;5.03;;;;;;;20.68;49.70;99821.52;1703830;83;21068;-71
2021/05/15 08:43:27;;;;;;;5.62;4.95;;;;;;;20.72;49.51;99821.31;1696510;82;21814;-71
2021/05/15 08:45:57;;;;;;;6.60;5.55;;;;;;;20.92;49.67;99816.16;1691611;83;21257;-71
2021/05/15 08:48:24;;;;;;;11.18;8.30;;;;;;;21.17;49.48;99816.52;1693280;83;21590;-71
2021/05/15 08:50:50;;;;;;;7.08;6.12;;;;;;;21.02;49.05;99814.92;1701153;83;21115;-71
2021/05/15 08:53:16;;;;;;;10.45;6.70;;;;;;;21.09;49.20;99810.13;1697469;83;21033;-71
2021/05/15 08:55:42;;;;;;;6.55;5.28;;;;;;;20.99;48.80;99808.66;1675044;85;20937;-69
2021/05/15 08:58:08;;;;;;;7.20;6.03;;;;;;;20.83;48.64;99811.69;1691036;83;22016;-69
2021/05/15 09:00:37;;;;;;;6.67;5.62;;;;;;;21.03;48.64;99810.33;1675570;84;21028;-70
2021/05/15 09:03:07;;;;;;;7.80;6.00;;;;;;;20.99;48.57;99814.08;1699403;83;21054;-70
2021/05/15 09:05:34;;;;;;;;;;;;;;;21.18;48.67;99815.41;1716475;82;21265;-70
2021/05/15 09:08:01;;;;;;;5.92;3.42;;;;;;;21.28;48.64;99808.78;1717561;82;20261;-70
2021/05/15 09:10:29;;;;;;;6.90;4.72;;;;;;;21.43;48.61;99803.50;1716440;82;21464;-70
2021/05/15 09:13:15;;;;;;;6.05;4.17;;;;;;;21.60;48.30;99812.09;1708383;82;21059;-70
2021/05/15 09:16:00;;;;;;;5.90;4.50;;;;;;;21.69;48.25;99806.48;1703851;83;21068;-70
2021/05/15 09:18:39;;;;;;;6.80;4.30;;;;;;;21.15;47.99;99812.39;1740688;82;21084;-69
2021/05/15 09:21:07;;;;;;;7.62;5.00;;;;;;;20.97;48.02;99812.14;1710205;83;21085;-70
2021/05/15 09:23:36;;;;;;;;;;;;;;;20.77;47.85;99805.93;1707774;83;21381;-70
2021/05/15 09:26:10;;;;;;;10.40;6.12;;;;;;;20.93;47.91;99804.25;1740843;82;20209;-70
2021/05/15 09:28:44;;;;;;;7.03;4.95;;;;;;;21.01;47.85;99803.79;1741053;82;21044;-69
2021/05/15 09:31:24;;;;;;;6.25;4.60;;;;;;;20.82;47.63;99805.19;1741188;81;21065;-69
2021/05/15 09:33:53;;;;;;;8.13;6.40;;;;;;;20.80;47.77;99805.95;1706718;83;21019;-69
2021/05/15 09:36:31;;;;;;;5.97;4.45;;;;;;;20.93;47.75;99813.73;1738806;82;21327;-69
2021/05/15 09:39:16;;;;;;;6.28;4.00;;;;;;;20.91;47.86;99799.59;1708264;83;21712;-69
2021/05/15 09:41:48;;;;;;;8.23;4.47;;;;;;;20.94;47.73;99796.38;1704696;83;21081;-69
2021/05/15 09:44:16;;;;;;;6.53;4.60;;;;;;;20.98;47.87;99793.45;1738916;82;21045;-69
2021/05/15 09:46:44;;;;;;;6.03;3.95;;;;;;;20.68;47.95;99795.78;1744551;81;21071;-69
2021/05/15 09:49:10;;;;;;;5.87;3.67;;;;;;;20.40;48.08;99795.39;1741176;82;21899;-69
2021/05/15 09:51:37;;;;;;;4.53;3.27;;;;;;;20.31;48.43;99795.50;1741695;82;21108;-69
2021/05/15 09:54:23;;;;;;;6.62;3.85;;;;;;;20.41;48.54;99797.83;1742601;82;21066;-69
2021/05/15 09:57:06;;;;;;;3.80;2.60;;;;;;;20.70;48.63;99786.85;1745104;82;21093;-69
2021/05/15 09:59:38;;;;;;;10.30;3.37;;;;;;;20.65;48.57;99784.91;1726824;82;21518;-69
2021/05/15 10:02:14;;;;;;;3.33;2.37;;;;;;;20.83;48.66;99779.70;1730515;82;21284;-69
2021/05/15 10:04:46;;;;;;;7.75;2.95;;;;;;;20.67;48.29;99781.41;1703810;83;21116;-69
2021/05/15 10:07:21;;;;;;;5.12;2.02;;;;;;;20.27;48.32;99781.64;1733654;82;21113;-69
2021/05/15 10:09:47;;;;;;;5.22;2.90;;;;;;;20.07;48.45;99781.30;1739165;82;21056;-69
2021/05/15 10:12:13;;;;;;;7.92;2.90;;;;;;;20.03;48.48;99784.73;1735503;82;21042;-69
2021/05/15 10:14:39;;;;;;;5.28;2.55;;;;;;;20.26;48.66;99777.28;1717257;81;21190;-69
2021/05/15 10:17:05;;;;;;;5.05;2.27;;;;;;;20.56;48.69;99768.78;1697067;83;21048;-69
2021/05/15 10:19:32;;;;;;;3.35;2.08;;;;;;;20.60;48.61;99771.81;1696581;84;21016;-69
2021/05/15 10:21:59;;;;;;;3.65;1.80;;;;;;;20.39;48.53;99768.83;1696462;84;21607;-69
2021/05/15 10:24:30;;;;;;;7.72;3.05;;;;;;;20.11;48.57;99768.91;1696312;84;21092;-69
2021/05/15 10:27:11;;;;;;;4.22;2.55;;;;;;;19.92;48.62;99766.16;1696582;84;21175;-69
2021/05/15 10:29:44;;;;;;;6.58;1.77;;;;;;;19.86;48.73;99765.27;1696398;84;21043;-69
2021/05/15 10:32:21;;;;;;;2.65;1.92;;;;;;;19.84;48.76;99763.33;1696449;84;21607;-69
2021/05/15 10:35:03;;;;;;;2.98;1.77;;;;;;;19.84;48.80;99761.17;1696478;84;21052;-70
2021/05/15 10:37:31;;;;;;;4.47;3.67;;;;;;;19.78;48.93;99766.19;1696363;84;21044;-69
2021/05/15 10:39:57;;;;;;;9.75;8.60;;;;;;;19.59;48.92;99766.16;1664929;84;21091;-68
2021/05/15 10:42:33;;;;;;;6.53;2.92;;;;;;;19.52;49.13;99763.61;1696255;84;21068;-68
2021/05/15 10:45:00;;;;;;;3.25;2.02;;;;;;;19.64;49.20;99763.52;1696588;84;21068;-68
2021/05/15 10:47:26;;;;;;;9.95;2.02;;;;;;;19.64;49.25;99765.69;1696481;84;21636;-69
2021/05/15 10:50:19;;;;;;;5.83;2.25;;;;;;;19.74;49.21;99767.75;1696402;84;21603;-69
2021/05/15 10:52:52;;;;;;;11.15;2.00;;;;;;;19.77;49.19;99757.81;1702543;83;21843;-68
2021/05/15 10:55:31;;;;;;;3.98;2.42;;;;;;;19.72;49.09;99756.36;1724002;83;21054;-68
2021/05/15 10:58:13;;;;;;;4.72;1.90;;;;;;;19.53;49.12;99760.38;1724321;81;21060;-68
2021/05/15 11:00:40;;;;;;;15.00;2.50;;;;;;;19.52;49.16;99768.19;1718477;83;21060;-68
2021/05/15 11:03:06;;;;;;;6.55;1.92;;;;;;;19.21;49.03;99775.69;1729992;81;21024;-68
2021/05/15 11:05:42;;;;;;;5.55;2.30;;;;;;;18.55;49.47;99776.73;1720078;81;21231;-68
2021/05/15 11:08:23;;;;;;;6.30;2.65;;;;;;;17.80;50.17;99780.09;1724602;83;21719;-69
2021/05/15 11:10:50;;;;;;;9.88;3.20;;;;;;;17.06;50.91;99775.15;1724646;83;21042;-68
2021/05/15 11:13:16;;;;;;;9.03;2.58;;;;;;;16.67;51.72;99772.93;1719008;82;21082;-68
2021/05/15 11:15:42;;;;;;;8.20;4.60;;;;;;;16.63;52.36;99770.38;1709832;83;20922;-68
2021/05/15 11:18:08;;;;;;;6.42;3.17;;;;;;;16.63;52.88;99769.03;1691363;83;21897;-68
2021/05/15 11:20:47;;;;;;;7.30;3.47;;;;;;;16.62;53.43;99766.03;1694123;83;20932;-69
2021/05/15 11:23:19;;;;;;;4.15;2.08;;;;;;;16.62;54.05;99760.65;1711364;83;21064;-68
2021/05/15 11:26:05;;;;;;;6.08;2.37;;;;;;;16.73;54.60;99760.73;1687185;83;21133;-68
2021/05/15 11:28:31;;;;;;;5.72;2.72;;;;;;;16.89;55.18;99752.55;1699668;83;21050;-68
2021/05/15 11:30:57;;;;;;;4.53;2.83;;;;;;;17.03;55.63;99747.28;1704622;83;21102;-68
2021/05/15 11:33:24;;;;;;;9.85;3.65;;;;;;;17.23;56.07;99745.16;1717673;83;21074;-68
2021/05/15 11:35:54;;;;;;;13.93;3.15;;;;;;;17.46;56.39;99746.57;1717833;82;21094;-69
2021/05/15 11:38:27;;;;;;;4.90;2.40;;;;;;;17.75;56.78;99738.69;1717734;82;21122;-69